Time;durP1;ratioP1;P1;durP2;ratioP2;P2;SDS_P1;SDS_P2;PMS_P1;PMS_P2;Temp;Humidity;BMP_temperature;BMP_pressure;BME280_temperature;BME280_humidity;BME280_pressure;Samples;Min_cycle;Max_cycle;Signal;HPM_P1;HPM_P2
2022/07/28 05:26:54;;;;;;;;;;;;;;;14.25;63.50;102061.75;4975091;28;96975;-34
2022/07/28 05:29:20;;;;;;;;;;;;;;;14.27;64.14;102058.94;4976699;28;96548;-34
2022/07/28 05:31:45;;;;;;;;;;;;;;;14.31;63.60;102057.81;4976887;28;96906;-34
2022/07/28 05:34:10;;;;;;;;;;;;;;;14.35;63.58;102060.25;4974458;28;101225;-34
2022/07/28 05:36:35;;;;;;;;;;;;;;;14.34;64.00;102061.22;4976466;28;97169;-34
2022/07/28 05:39:01;;;;;;;;;;;;;;;14.35;63.62;102052.09;4976388;28;96674;-34
2022/07/28 05:41:26;;;;;;;;;;;;;;;14.43;63.87;102055.22;4976656;28;96797;-34
2022/07/28 05:43:53;;;;;;;;;;;;;;;14.50;63.83;102063.06;4976008;28;99093;-34
2022/07/28 05:46:18;;;;;;;;;;;;;;;14.57;63.30;102059.03;4974607;28;99025;-34
2022/07/28 05:48:44;;;;;;;;;;;;;;;14.65;63.25;102054.88;4976391;28;96586;-34
2022/07/28 05:51:10;;;;;;;;;;;;;;;14.65;62.65;102057.59;4975305;28;97061;-34
2022/07/28 05:53:35;;;;;;;;;;;;;;;14.67;63.41;102057.53;4975589;28;99337;-34
2022/07/28 05:56:00;;;;;;;;;;;;;;;14.70;63.20;102056.44;4976045;28;97807;-34
2022/07/28 05:58:25;;;;;;;;;;;;;;;14.71;63.59;102059.09;4975775;28;96875;-34
2022/07/28 06:00:50;;;;;;;;;;;;;;;14.72;63.76;102058.13;4974730;28;96865;-34
2022/07/28 06:03:16;;;;;;;;;;;;;;;14.70;63.74;102056.44;4975643;28;99279;-34
2022/07/28 06:05:41;;;;;;;;;;;;;;;14.69;62.90;102055.59;4975990;28;97657;-34
2022/07/28 06:08:06;;;;;;;;;;;;;;;14.70;63.81;102046.41;4975973;28;96524;-34
2022/07/28 06:13:16;;;;;;;;;;;;;;;14.76;63.92;102048.78;4975251;28;97114;-35
2022/07/28 06:15:41;;;;;;;;;;;;;;;14.77;63.28;102058.72;4974723;28;97722;-35
2022/07/28 06:18:06;;;;;;;;;;;;;;;14.85;63.20;102066.47;4975537;28;96683;-34
2022/07/28 06:20:32;;;;;;;;;;;;;;;14.90;62.73;102055.25;4976209;28;96844;-34
2022/07/28 06:22:57;;;;;;;;;;;;;;;14.98;62.99;102061.13;4975220;28;97932;-34
2022/07/28 06:25:27;;;;;;;;;;;;;;;15.00;63.63;102053.75;4975478;28;99675;-34
2022/07/28 06:27:53;;;;;;;;;;;;;;;15.03;63.51;102059.00;4975404;28;96919;-34
2022/07/28 06:30:19;;;;;;;;;;;;;;;15.08;63.12;102051.41;4974462;28;96846;-34
2022/07/28 06:32:44;;;;;;;;;;;;;;;15.24;62.74;102056.81;4974865;28;97953;-35
2022/07/28 06:35:13;;;;;;;;;;;;;;;15.33;63.01;102055.38;4973613;28;97687;-35
2022/07/28 06:37:38;;;;;;;;;;;;;;;15.47;61.85;102050.78;4972493;28;97024;-35
2022/07/28 06:40:04;;;;;;;;;;;;;;;15.58;62.27;102049.22;4975752;28;96954;-34
2022/07/28 06:42:30;;;;;;;;;;;;;;;15.70;61.67;102056.66;4974916;28;97324;-34
2022/07/28 06:44:55;;;;;;;;;;;;;;;15.86;61.41;102054.72;4975507;28;98895;-34
2022/07/28 06:47:20;;;;;;;;;;;;;;;16.02;60.98;102053.75;4974848;28;96631;-34
2022/07/28 06:49:45;;;;;;;;;;;;;;;16.15;61.00;102043.72;4975699;28;96883;-34
2022/07/28 06:52:11;;;;;;;;;;;;;;;16.28;60.71;102052.00;4975344;28;97942;-34
2022/07/28 06:54:36;;;;;;;;;;;;;;;16.43;60.01;102050.97;4975011;28;99127;-35
2022/07/28 06:57:02;;;;;;;;;;;;;;;16.56;59.72;102054.66;4975334;28;96619;-34
2022/07/28 06:59:28;;;;;;;;;;;;;;;16.70;59.76;102059.16;4975387;28;96872;-34
2022/07/28 07:01:53;;;;;;;;;;;;;;;16.85;59.21;102053.66;4975275;28;97931;-34
2022/07/28 07:04:18;;;;;;;;;;;;;;;16.95;58.95;102042.00;4975290;28;96850;-34
2022/07/28 07:06:43;;;;;;;;;;;;;;;17.03;58.74;102054.25;4975475;28;96615;-35
2022/07/28 07:09:09;;;;;;;;;;;;;;;16.99;58.40;102042.63;4975233;28;97025;-34
2022/07/28 07:11:37;;;;;;;;;;;;;;;17.02;58.74;102045.19;4974319;28;99482;-34
2022/07/28 07:14:02;;;;;;;;;;;;;;;17.11;58.81;102049.13;4974802;28;98679;-34
2022/07/28 07:16:27;;;;;;;;;;;;;;;17.20;57.96;102053.94;4975456;28;96593;-34
2022/07/28 07:18:53;;;;;;;;;;;;;;;17.32;57.66;102053.06;4975439;28;96566;-34
2022/07/28 07:21:18;;;;;;;;;;;;;;;17.50;57.66;102050.03;4974942;28;97586;-34
2022/07/28 07:23:43;;;;;;;;;;;;;;;17.55;56.68;102042.34;4974538;28;99614;-35
2022/07/28 07:26:09;;;;;;;;;;;;;;;17.66;56.29;102047.03;4975160;28;96727;-35
2022/07/28 07:28:34;;;;;;;;;;;;;;;17.70;55.68;102037.63;4975073;28;96910;-35
2022/07/28 07:30:59;;;;;;;;;;;;;;;17.86;56.14;102042.91;4975079;28;97878;-35
2022/07/28 07:33:25;;;;;;;;;;;;;;;17.99;54.96;102046.47;4974873;28;97724;-35
2022/07/28 07:35:50;;;;;;;;;;;;;;;17.96;55.19;102044.84;4974769;28;96753;-34
2022/07/28 07:38:15;;;;;;;;;;;;;;;17.96;53.83;102038.50;4974947;28;96875;-34
2022/07/28 07:40:40;;;;;;;;;;;;;;;18.01;53.20;102052.72;4974875;28;97976;-34
2022/07/28 07:43:06;;;;;;;;;;;;;;;18.17;54.10;102044.25;4974971;28;97638;-34
2022/07/28 07:45:33;;;;;;;;;;;;;;;18.31;53.53;102043.22;4975083;28;96910;-34
2022/07/28 07:47:58;;;;;;;;;;;;;;;18.55;52.64;102045.97;4974913;28;96804;-34
2022/07/28 07:50:23;;;;;;;;;;;;;;;18.74;51.38;102049.06;4974631;28;97898;-35
2022/07/28 07:52:48;;;;;;;;;;;;;;;18.87;51.36;102040.75;4974495;28;98734;-35
2022/07/28 07:55:14;;;;;;;;;;;;;;;18.91;51.64;102045.03;4974673;28;96619;-35
2022/07/28 07:57:39;;;;;;;;;;;;;;;19.08;52.11;102036.34;4976934;28;96806;-35
2022/07/28 08:00:05;;;;;;;;;;;;;;;19.19;51.87;102038.25;4974564;28;97326;-35
2022/07/28 08:02:30;;;;;;;;;;;;;;;19.27;50.99;102045.88;4986243;28;98952;-35
2022/07/28 08:04:55;;;;;;;;;;;;;;;19.27;50.99;102043.13;4994745;28;96600;-35
2022/07/28 08:07:20;;;;;;;;;;;;;;;19.30;51.56;102043.75;4983327;28;96844;-34
2022/07/28 08:09:46;;;;;;;;;;;;;;;19.45;49.81;102038.03;4974285;28;97358;-35
2022/07/28 08:12:11;;;;;;;;;;;;;;;19.57;49.46;102031.56;4974394;28;97793;-36
2022/07/28 08:14:36;;;;;;;;;;;;;;;19.59;49.41;102029.53;4974890;28;96430;-35
2022/07/28 08:17:01;;;;;;;;;;;;;;;19.56;50.08;102028.94;4976830;28;96862;-35
2022/07/28 08:19:26;;;;;;;;;;;;;;;19.80;49.97;102024.22;4977659;28;98777;-35
2022/07/28 08:21:52;;;;;;;;;;;;;;;19.88;48.22;102029.97;4977281;28;102473;-35
2022/07/28 08:24:17;;;;;;;;;;;;;;;19.85;47.63;102023.84;4977473;28;96480;-35
2022/07/28 08:26:42;;;;;;;;;;;;;;;19.92;48.26;102023.19;4976967;28;96904;-35
2022/07/28 08:29:08;;;;;;;;;;;;;;;19.76;47.69;102024.59;4977775;28;97614;-35
2022/07/28 08:31:33;;;;;;;;;;;;;;;19.76;47.10;102035.59;4977160;28;99473;-35
2022/07/28 08:33:59;;;;;;;;;;;;;;;19.91;47.51;102026.09;4977493;28;96565;-35
2022/07/28 08:36:24;;;;;;;;;;;;;;;20.06;46.75;102016.56;4977269;28;96848;-36
2022/07/28 08:38:50;;;;;;;;;;;;;;;20.34;48.17;102017.88;4977223;28;98005;-35
2022/07/28 08:41:29;;;;;;;;;;;;;;;20.56;45.51;102021.59;4977118;28;110269;-36
2022/07/28 08:43:55;;;;;;;;;;;;;;;20.79;46.94;102016.88;4977259;28;96746;-36
2022/07/28 08:46:21;;;;;;;;;;;;;;;20.87;45.80;102018.94;4989148;28;96905;-36
2022/07/28 08:48:48;;;;;;;;;;;;;;;20.86;45.50;102026.34;4995118;28;101306;-35
2022/07/28 08:51:14;;;;;;;;;;;;;;;20.83;45.46;102026.59;4995238;28;100699;-36
2022/07/28 08:53:39;;;;;;;;;;;;;;;20.98;45.29;102027.16;4996985;28;96751;-35
2022/07/28 08:56:06;;;;;;;;;;;;;;;20.92;44.95;102020.28;4997574;28;96742;-36
2022/07/28 08:58:32;;;;;;;;;;;;;;;20.95;46.72;102016.38;4996610;28;98154;-35
2022/07/28 09:00:57;;;;;;;;;;;;;;;20.79;45.08;102020.50;4996781;28;98750;-36
2022/07/28 09:03:22;;;;;;;;;;;;;;;20.61;46.84;102022.06;4997171;28;96591;-36
2022/07/28 09:05:49;;;;;;;;;;;;;;;20.63;45.90;102028.31;4997771;28;96835;-36
2022/07/28 09:08:16;;;;;;;;;;;;;;;20.46;43.21;102023.34;4994926;28;101144;-35
2022/07/28 09:10:41;;;;;;;;;;;;;;;20.37;45.67;102025.84;4996765;28;97952;-36
2022/07/28 09:13:06;;;;;;;;;;;;;;;20.30;44.95;102021.88;4996486;28;96643;-36
2022/07/28 09:15:32;;;;;;;;;;;;;;;20.36;45.91;102020.50;4996440;28;96825;-35
2022/07/28 09:17:57;;;;;;;;;;;;;;;20.42;45.23;102017.22;4996395;28;99488;-35
2022/07/28 09:20:22;;;;;;;;;;;;;;;20.35;46.88;102014.13;4994979;28;97700;-36
2022/07/28 09:22:56;;;;;;;;;;;;;;;20.22;46.51;102016.16;4995483;28;97306;-36
2022/07/28 09:25:21;;;;;;;;;;;;;;;20.14;46.17;102008.56;4995032;28;97016;-36
2022/07/28 09:27:46;;;;;;;;;;;;;;;20.14;46.55;102018.66;4993800;28;99164;-36
2022/07/28 09:30:11;;;;;;;;;;;;;;;20.08;46.22;102014.56;4996812;28;97227;-35
2022/07/28 09:32:37;;;;;;;;;;;;;;;20.14;46.14;102013.16;4996668;28;96488;-36
2022/07/28 09:35:03;;;;;;;;;;;;;;;20.26;45.91;102016.75;4995137;28;96827;-36
2022/07/28 09:37:28;;;;;;;;;;;;;;;20.40;45.62;102018.34;4995838;28;99579;-37
2022/07/28 09:39:57;;;;;;;;;;;;;;;20.54;45.31;102010.66;4995765;28;99020;-36
2022/07/28 09:42:23;;;;;;;;;;;;;;;20.49;46.13;102012.94;4995046;28;96555;-36
2022/07/28 09:45:04;;;;;;;;;;;;;;;20.44;45.85;102003.34;4996436;28;96835;-35
2022/07/28 09:47:31;;;;;;;;;;;;;;;20.50;45.89;102002.81;4984498;28;98010;-36
2022/07/28 09:49:57;;;;;;;;;;;;;;;20.64;44.56;101994.28;4974630;28;100647;-36
2022/07/28 09:52:27;;;;;;;;;;;;;;;20.93;44.94;101989.00;4975376;28;96683;-35
2022/07/28 09:55:04;;;;;;;;;;;;;;;21.32;43.95;101991.13;4975400;28;96836;-36
2022/07/28 09:57:30;;;;;;;;;;;;;;;21.40;43.25;101991.31;4974371;28;102180;-35
2022/07/28 09:59:55;;;;;;;;;;;;;;;21.37;42.81;101986.06;4975699;28;99390;-36
2022/07/28 10:02:24;;;;;;;;;;;;;;;21.21;43.44;101979.19;4974623;28;96694;-36
2022/07/28 10:04:51;;;;;;;;;;;;;;;21.15;43.22;101976.94;4974641;28;96819;-36
2022/07/28 10:07:16;;;;;;;;;;;;;;;21.15;41.56;101971.44;4973508;28;101006;-36
2022/07/28 10:09:42;;;;;;;;;;;;;;;21.13;41.66;101962.44;4975137;28;97762;-35
2022/07/28 10:12:18;;;;;;;;;;;;;;;21.09;41.90;101971.97;4975447;28;96590;-34
2022/07/28 10:14:45;;;;;;;;;;;;;;;21.21;42.77;101979.19;4975622;28;96775;-34
2022/07/28 10:17:11;;;;;;;;;;;;;;;21.39;42.13;101971.16;4973940;28;101284;-34
2022/07/28 10:19:36;;;;;;;;;;;;;;;21.61;40.99;101966.47;4974637;28;100843;-35
2022/07/28 10:22:02;;;;;;;;;;;;;;;21.89;41.90;101975.00;4976025;28;96528;-35
2022/07/28 10:24:29;;;;;;;;;;;;;;;22.09;40.72;101964.88;4976127;28;96927;-34
2022/07/28 10:26:55;;;;;;;;;;;;;;;22.36;39.79;101967.84;4974746;28;97357;-34
2022/07/28 10:29:22;;;;;;;;;;;;;;;22.41;39.26;101961.91;4975813;28;97822;-34
2022/07/28 10:31:52;;;;;;;;;;;;;;;22.52;39.15;101958.97;4975993;28;96437;-34
2022/07/28 10:34:23;;;;;;;;;;;;;;;22.78;38.13;101961.13;4976144;28;96809;-34
2022/07/28 10:36:49;;;;;;;;;;;;;;;22.93;39.11;101958.78;4974156;28;101209;-34
2022/07/28 10:39:18;;;;;;;;;;;;;;;23.12;38.23;101953.28;4974600;28;97739;-34
2022/07/28 10:41:44;;;;;;;;;;;;;;;23.40;38.17;101956.06;4975944;28;96482;-34
2022/07/28 10:44:12;;;;;;;;;;;;;;;23.49;37.63;101953.28;4975951;28;97054;-34
2022/07/28 10:46:39;;;;;;;;;;;;;;;23.24;37.45;101957.59;4973938;28;101079;-34
2022/07/28 10:49:04;;;;;;;;;;;;;;;23.05;35.66;101954.91;4975426;28;97248;-34
2022/07/28 10:51:30;;;;;;;;;;;;;;;23.10;36.84;101952.56;4975080;28;97175;-34
2022/07/28 10:54:07;;;;;;;;;;;;;;;23.18;38.02;101938.84;4973969;28;96857;-34
2022/07/28 10:56:32;;;;;;;;;;;;;;;23.29;36.56;101935.03;4975101;28;99262;-34
2022/07/28 10:59:06;;;;;;;;;;;;;;;23.40;38.18;101928.41;4975105;28;97057;-34
2022/07/28 11:01:33;;;;;;;;;;;;;;;23.44;37.46;101933.50;4975728;28;96547;-34
2022/07/28 11:03:58;;;;;;;;;;;;;;;23.55;35.70;101932.44;4974262;28;96877;-34
2022/07/28 11:06:25;;;;;;;;;;;;;;;23.57;36.38;101935.91;4975169;28;98022;-34
2022/07/28 11:08:53;;;;;;;;;;;;;;;23.62;37.32;101944.63;4973790;28;99015;-34
2022/07/28 11:11:37;;;;;;;;;;;;;;;23.74;37.25;101939.81;4974168;28;96593;-34
2022/07/28 11:14:21;;;;;;;;;;;;;;;23.87;35.53;101940.28;4975546;28;96839;-34
2022/07/28 11:16:46;;;;;;;;;;;;;;;23.95;36.90;101933.97;4974543;28;97481;-34
2022/07/28 11:19:13;;;;;;;;;;;;;;;24.07;37.05;101934.63;4974807;28;98736;-34
2022/07/28 11:21:58;;;;;;;;;;;;;;;24.22;36.43;101937.72;4973811;28;96586;-34
2022/07/28 11:24:23;;;;;;;;;;;;;;;24.42;36.17;101930.16;4974657;28;96803;-34
2022/07/28 11:26:50;;;;;;;;;;;;;;;24.37;35.17;101933.38;4974346;28;97762;-34
2022/07/28 11:29:16;;;;;;;;;;;;;;;24.42;36.20;101928.22;4973500;28;100923;-34
2022/07/28 11:31:47;;;;;;;;;;;;;;;24.40;35.44;101924.75;4973693;28;96762;-34
2022/07/28 11:34:15;;;;;;;;;;;;;;;24.47;36.02;101923.13;4975385;28;96861;-34
2022/07/28 11:37:00;;;;;;;;;;;;;;;24.56;36.31;101927.69;4975222;28;97296;-34
2022/07/28 11:39:26;;;;;;;;;;;;;;;24.64;36.01;101924.13;4974735;28;97832;-34
2022/07/28 11:41:51;;;;;;;;;;;;;;;24.73;36.49;101919.53;4974394;28;96601;-34
2022/07/28 11:44:23;;;;;;;;;;;;;;;24.70;34.63;101912.41;4975575;28;96817;-35
2022/07/28 11:46:49;;;;;;;;;;;;;;;24.70;35.29;101912.41;4973203;28;101213;-34
2022/07/28 11:49:16;;;;;;;;;;;;;;;24.76;35.02;101905.34;4973917;28;98770;-35
2022/07/28 11:52:01;;;;;;;;;;;;;;;24.93;35.11;101898.91;4974269;28;96780;-34
2022/07/28 11:54:26;;;;;;;;;;;;;;;25.01;34.61;101889.75;4976510;28;96854;-35
2022/07/28 11:56:56;;;;;;;;;;;;;;;24.89;34.97;101891.06;4976809;28;97446;-34
2022/07/28 11:59:21;;;;;;;;;;;;;;;24.79;33.17;101896.72;4978218;28;97795;-34
2022/07/28 12:01:55;;;;;;;;;;;;;;;24.76;34.50;101897.03;4978113;28;96625;-34
2022/07/28 12:04:24;;;;;;;;;;;;;;;24.74;35.04;101891.66;4976783;28;96709;-34
2022/07/28 12:06:51;;;;;;;;;;;;;;;24.62;34.76;101889.31;4977045;28;99308;-34
2022/07/28 12:09:17;;;;;;;;;;;;;;;24.51;35.04;101891.31;4977407;28;98732;-34
2022/07/28 12:11:42;;;;;;;;;;;;;;;24.30;35.04;101891.59;4976264;28;96599;-35
2022/07/28 12:14:12;;;;;;;;;;;;;;;24.13;35.00;101882.28;4976806;28;96838;-34
2022/07/28 12:16:39;;;;;;;;;;;;;;;24.05;35.27;101878.53;4977940;28;97507;-35
2022/07/28 12:19:05;;;;;;;;;;;;;;;24.13;34.89;101884.19;4977580;28;97787;-35
2022/07/28 12:21:44;;;;;;;;;;;;;;;24.26;35.09;101878.22;4977750;28;96828;-35
2022/07/28 12:24:10;;;;;;;;;;;;;;;24.52;34.74;101870.00;4976879;28;96853;-35
2022/07/28 12:26:36;;;;;;;;;;;;;;;24.68;34.45;101864.59;4976947;28;99337;-34
2022/07/28 12:29:02;;;;;;;;;;;;;;;24.62;35.20;101870.75;4975927;28;100990;-35
2022/07/28 12:31:29;;;;;;;;;;;;;;;24.67;34.97;101867.50;4977304;28;96521;-35
2022/07/28 12:33:56;;;;;;;;;;;;;;;24.77;35.46;101865.53;4976138;28;96848;-35
2022/07/28 12:36:24;;;;;;;;;;;;;;;24.78;35.27;101861.72;4977305;28;97959;-35
2022/07/28 12:38:50;;;;;;;;;;;;;;;24.68;34.16;101850.72;4977339;28;97796;-34
2022/07/28 12:41:16;;;;;;;;;;;;;;;24.84;34.77;101861.06;4977724;28;96723;-35
2022/07/28 12:43:49;;;;;;;;;;;;;;;24.70;31.93;101862.53;4977686;28;96810;-35
2022/07/28 12:46:27;;;;;;;;;;;;;;;24.40;32.72;101857.41;4976902;28;99438;-35
2022/07/28 12:48:56;;;;;;;;;;;;;;;24.50;34.33;101864.66;4975984;28;101215;-35
2022/07/28 12:51:34;;;;;;;;;;;;;;;24.64;33.63;101852.09;4976069;28;96660;-35
2022/07/28 12:54:00;;;;;;;;;;;;;;;24.52;34.02;101857.00;4975924;28;97039;-35
2022/07/28 12:56:26;;;;;;;;;;;;;;;24.51;33.81;101859.97;4976241;28;98922;-35
2022/07/28 12:59:04;;;;;;;;;;;;;;;24.50;33.50;101850.78;4976690;28;97680;-35
2022/07/28 13:01:42;;;;;;;;;;;;;;;24.38;34.19;101847.38;4977150;28;96515;-35
2022/07/28 13:04:08;;;;;;;;;;;;;;;24.33;34.91;101843.31;4977561;28;96695;-35
2022/07/28 13:06:34;;;;;;;;;;;;;;;24.18;34.78;101856.88;4976930;28;97475;-35
2022/07/28 13:08:59;;;;;;;;;;;;;;;24.05;34.58;101861.94;4976492;28;98662;-35
2022/07/28 13:11:28;;;;;;;;;;;;;;;23.90;35.53;101848.66;4976686;28;96648;-35
2022/07/28 13:13:55;;;;;;;;;;;;;;;23.69;34.19;101845.28;4977676;28;96520;-35
2022/07/28 13:16:21;;;;;;;;;;;;;;;23.57;35.17;101847.38;4976570;28;97828;-35
2022/07/28 13:18:49;;;;;;;;;;;;;;;23.49;34.65;101842.63;4976560;28;97664;-35
2022/07/28 13:21:15;;;;;;;;;;;;;;;23.49;35.38;101841.78;4975039;28;96754;-35
2022/07/28 13:23:40;;;;;;;;;;;;;;;23.47;35.99;101841.91;4975538;28;96959;-35
2022/07/28 13:26:06;;;;;;;;;;;;;;;23.49;35.68;101855.59;4976337;28;97885;-35
2022/07/28 13:28:31;;;;;;;;;;;;;;;23.42;35.33;101848.94;4976161;28;99060;-35
2022/07/28 13:30:57;;;;;;;;;;;;;;;23.35;35.48;101847.81;4976983;28;96619;-35
2022/07/28 13:33:22;;;;;;;;;;;;;;;23.35;36.05;101851.44;4976773;28;96776;-35
2022/07/28 13:35:49;;;;;;;;;;;;;;;23.35;35.78;101847.81;4976555;28;97978;-35
2022/07/28 13:38:14;;;;;;;;;;;;;;;23.45;35.81;101845.88;4974583;28;100858;-35
2022/07/28 13:40:40;;;;;;;;;;;;;;;23.56;35.28;101853.09;4974772;28;96675;-34
2022/07/28 13:43:06;;;;;;;;;;;;;;;23.67;35.32;101848.22;4976437;28;96872;-35
2022/07/28 13:45:32;;;;;;;;;;;;;;;23.73;35.63;101857.78;4974907;28;99495;-35
2022/07/28 13:47:58;;;;;;;;;;;;;;;23.94;35.11;101847.31;4976093;28;97438;-35
2022/07/28 13:50:32;;;;;;;;;;;;;;;24.25;35.22;101851.59;4975860;28;96870;-34
2022/07/28 13:52:58;;;;;;;;;;;;;;;24.32;34.41;101842.47;4976058;28;96810;-35
2022/07/28 13:55:23;;;;;;;;;;;;;;;24.36;34.09;101837.50;4975619;28;99219;-35
2022/07/28 13:57:48;;;;;;;;;;;;;;;24.34;35.11;101834.00;4974431;28;99161;-35
2022/07/28 14:00:15;;;;;;;;;;;;;;;24.41;34.74;101836.97;4974982;28;96647;-35
2022/07/28 14:02:41;;;;;;;;;;;;;;;24.52;34.70;101837.63;4974758;28;96973;-35
2022/07/28 14:05:06;;;;;;;;;;;;;;;24.63;35.46;101827.34;4975194;28;99359;-35
2022/07/28 14:07:31;;;;;;;;;;;;;;;24.53;35.02;101814.44;4975529;28;97738;-35
2022/07/28 14:09:57;;;;;;;;;;;;;;;24.29;33.98;101820.66;4974730;28;96577;-35
2022/07/28 14:12:22;;;;;;;;;;;;;;;24.07;35.31;101827.53;4974276;28;96782;-35
2022/07/28 14:14:47;;;;;;;;;;;;;;;23.94;35.89;101827.06;4974699;28;97594;-35
2022/07/28 14:17:13;;;;;;;;;;;;;;;23.85;36.10;101816.94;4974398;28;99204;-35
2022/07/28 14:19:38;;;;;;;;;;;;;;;23.73;36.43;101816.28;4975017;28;97071;-35
2022/07/28 14:22:04;;;;;;;;;;;;;;;23.58;37.12;101815.94;4975803;28;96800;-35
2022/07/28 14:24:29;;;;;;;;;;;;;;;23.42;37.44;101818.53;4975349;28;97926;-35
2022/07/28 14:26:54;;;;;;;;;;;;;;;23.39;37.18;101814.19;4975404;28;97730;-35
2022/07/28 14:29:19;;;;;;;;;;;;;;;23.33;37.20;101820.31;4976145;28;96640;-35
2022/07/28 14:31:45;;;;;;;;;;;;;;;23.22;37.33;101813.13;4976407;28;96505;-35
2022/07/28 14:34:10;;;;;;;;;;;;;;;23.20;37.60;101812.41;4974964;28;98958;-35
2022/07/28 14:36:35;;;;;;;;;;;;;;;23.20;37.81;101811.53;4975623;28;97667;-35
2022/07/28 14:39:01;;;;;;;;;;;;;;;23.24;38.21;101805.53;4975679;28;96769;-35
2022/07/28 14:41:26;;;;;;;;;;;;;;;23.20;38.15;101798.56;4975584;28;96853;-35
2022/07/28 14:43:51;;;;;;;;;;;;;;;23.15;38.33;101792.63;4975297;28;104014;-35
2022/07/28 14:46:17;;;;;;;;;;;;;;;23.20;38.41;101804.09;4975171;28;99094;-35
2022/07/28 14:48:42;;;;;;;;;;;;;;;23.20;38.02;101806.00;4975682;28;96543;-35
2022/07/28 14:51:09;;;;;;;;;;;;;;;23.16;37.57;101799.91;4975940;28;96895;-35
2022/07/28 14:53:35;;;;;;;;;;;;;;;23.05;38.39;101802.88;4975056;28;97912;-35
2022/07/28 14:56:00;;;;;;;;;;;;;;;23.05;38.63;101808.41;4975016;28;98980;-35
2022/07/28 14:58:25;;;;;;;;;;;;;;;22.99;39.05;101798.81;4974797;28;96901;-35
2022/07/28 15:00:50;;;;;;;;;;;;;;;22.89;38.22;101797.97;4975484;28;97004;-35
2022/07/28 15:03:16;;;;;;;;;;;;;;;22.84;38.92;101803.09;4975317;28;97926;-35
2022/07/28 15:05:45;;;;;;;;;;;;;;;22.80;38.75;101804.41;4975080;28;99212;-35
2022/07/28 15:08:11;;;;;;;;;;;;;;;22.75;39.07;101791.03;4973757;28;96787;-35
2022/07/28 15:10:37;;;;;;;;;;;;;;;22.70;38.90;101798.91;4975240;28;96896;-35
2022/07/28 15:13:02;;;;;;;;;;;;;;;22.69;38.73;101797.16;4957428;28;100787;-35
2022/07/28 15:15:27;;;;;;;;;;;;;;;22.69;38.84;101797.16;4975174;28;98201;-35
2022/07/28 15:17:57;;;;;;;;;;;;;;;22.71;39.01;101792.34;4975501;28;96674;-35
2022/07/28 15:20:22;;;;;;;;;;;;;;;22.72;38.79;101796.88;4973976;28;96821;-35
2022/07/28 15:22:48;;;;;;;;;;;;;;;22.72;39.11;101788.59;4974057;28;99612;-35
2022/07/28 15:25:15;;;;;;;;;;;;;;;22.76;39.09;101787.22;4975746;28;97756;-35
2022/07/28 15:27:41;;;;;;;;;;;;;;;22.80;38.78;101787.81;4978348;28;96663;-35
2022/07/28 15:30:06;;;;;;;;;;;;;;;22.83;39.19;101780.09;4978905;28;96795;-35
2022/07/28 15:32:32;;;;;;;;;;;;;;;22.85;39.71;101782.69;4978412;28;97944;-35
2022/07/28 15:34:57;;;;;;;;;;;;;;;22.84;39.39;101781.84;4976954;28;99077;-35
2022/07/28 15:37:22;;;;;;;;;;;;;;;22.80;39.81;101783.16;4978360;28;97279;-35
2022/07/28 15:39:47;;;;;;;;;;;;;;;22.84;39.88;101787.38;4978651;28;96603;-35
2022/07/28 15:42:13;;;;;;;;;;;;;;;22.78;39.90;101785.19;4978317;28;97650;-35
2022/07/28 15:44:38;;;;;;;;;;;;;;;22.79;39.36;101778.66;4978321;28;97772;-35
2022/07/28 15:47:03;;;;;;;;;;;;;;;22.79;39.54;101786.09;4977893;28;96670;-35
2022/07/28 15:49:28;;;;;;;;;;;;;;;22.75;39.86;101790.16;4978521;28;96799;-35
2022/07/28 15:51:53;;;;;;;;;;;;;;;22.73;40.17;101787.53;4977719;28;103786;-35
2022/07/28 15:54:19;;;;;;;;;;;;;;;22.72;39.29;101785.81;4978053;28;97657;-34
2022/07/28 15:56:44;;;;;;;;;;;;;;;22.69;40.38;101783.34;4978480;28;96495;-35
2022/07/28 15:59:09;;;;;;;;;;;;;;;22.75;40.36;101779.97;4977794;28;96857;-35
2022/07/28 16:01:35;;;;;;;;;;;;;;;22.77;40.45;101774.31;4978070;28;98054;-35
2022/07/28 16:04:00;;;;;;;;;;;;;;;22.78;40.20;101774.16;4978215;28;98586;-35
2022/07/28 16:07:17;;;;;;;;;;;;;;;22.80;40.60;101776.78;4978083;28;96501;-35
2022/07/28 16:09:18;;;;;;;;;;;;;;;22.72;39.74;101782.19;4977897;28;96599;-35
2022/07/28 16:11:43;;;;;;;;;;;;;;;22.71;40.42;101775.78;4977115;28;99298;-35
2022/07/28 16:14:09;;;;;;;;;;;;;;;22.69;40.04;101764.00;4977715;28;97806;-35
2022/07/28 16:16:34;;;;;;;;;;;;;;;22.67;39.82;101771.59;4978195;28;96664;-35
2022/07/28 16:18:59;;;;;;;;;;;;;;;22.63;40.33;101767.38;4977722;28;96721;-35
2022/07/28 16:21:25;;;;;;;;;;;;;;;22.60;40.83;101767.69;4977406;28;99445;-35
2022/07/28 16:23:50;;;;;;;;;;;;;;;22.57;40.46;101763.34;4977858;28;97682;-35
2022/07/28 16:26:15;;;;;;;;;;;;;;;22.54;40.69;101771.91;4977930;28;96503;-35
2022/07/28 16:28:40;;;;;;;;;;;;;;;22.58;41.20;101765.06;4977318;28;96907;-35
2022/07/28 16:31:06;;;;;;;;;;;;;;;22.57;41.04;101759.69;4977358;28;103324;-35
2022/07/28 16:33:31;;;;;;;;;;;;;;;22.55;41.07;101768.16;4975686;28;100960;-35
2022/07/28 16:35:57;;;;;;;;;;;;;;;22.52;41.09;101773.09;4977243;28;96463;-35
2022/07/28 16:38:31;;;;;;;;;;;;;;;22.50;40.56;101772.34;4976342;28;96826;-35
2022/07/28 16:40:56;;;;;;;;;;;;;;;22.46;41.05;101769.03;4977099;28;99295;-35
2022/07/28 16:43:22;;;;;;;;;;;;;;;22.48;41.12;101773.41;4976879;28;99650;-35
2022/07/28 16:45:47;;;;;;;;;;;;;;;22.40;41.17;101770.50;4975964;28;96593;-35
2022/07/28 16:48:12;;;;;;;;;;;;;;;22.41;41.30;101769.50;4977142;28;97456;-35
2022/07/28 16:50:37;;;;;;;;;;;;;;;22.45;41.27;101770.94;4977018;28;99180;-35
2022/07/28 16:53:05;;;;;;;;;;;;;;;22.44;41.14;101771.94;4978989;28;98835;-35
2022/07/28 16:55:30;;;;;;;;;;;;;;;22.47;41.25;101766.09;4995851;28;96853;-35
2022/07/28 16:57:58;;;;;;;;;;;;;;;22.54;41.48;101769.16;4992525;28;96884;-35
2022/07/28 17:00:24;;;;;;;;;;;;;;;22.56;41.16;101766.25;4987425;28;99107;-35
2022/07/28 17:02:50;;;;;;;;;;;;;;;22.51;41.39;101752.03;4976583;28;99840;-35
2022/07/28 17:05:15;;;;;;;;;;;;;;;22.51;41.75;101763.06;4977155;28;96669;-35
2022/07/28 17:07:40;;;;;;;;;;;;;;;22.48;41.35;101762.34;4976991;28;96813;-35
2022/07/28 17:10:10;;;;;;;;;;;;;;;22.51;42.01;101768.59;4975419;28;97268;-36
2022/07/28 17:12:36;;;;;;;;;;;;;;;22.45;41.65;101767.28;4985117;28;97730;-36
2022/07/28 17:15:04;;;;;;;;;;;;;;;22.36;42.17;101769.06;4992718;28;97369;-36
2022/07/28 17:17:29;;;;;;;;;;;;;;;22.31;42.47;101756.72;4985751;28;98394;-35
2022/07/28 17:19:54;;;;;;;;;;;;;;;22.27;42.78;101764.44;4992780;28;97368;-35
2022/07/28 17:22:21;;;;;;;;;;;;;;;22.23;42.91;101761.09;4996583;28;97797;-35
2022/07/28 17:24:47;;;;;;;;;;;;;;;22.15;43.19;101760.06;4996211;28;96692;-35
2022/07/28 17:27:12;;;;;;;;;;;;;;;22.05;43.05;101760.97;4993090;28;96847;-35
2022/07/28 17:29:38;;;;;;;;;;;;;;;22.04;43.28;101756.44;4986983;28;99095;-35
2022/07/28 17:32:06;;;;;;;;;;;;;;;22.00;43.78;101762.41;4989990;28;99066;-34
2022/07/28 17:34:37;;;;;;;;;;;;;;;22.03;43.65;101770.41;4994057;28;96870;-35
2022/07/28 17:37:03;;;;;;;;;;;;;;;22.01;43.65;101769.66;4996200;28;96529;-35
2022/07/28 17:39:29;;;;;;;;;;;;;;;22.03;43.93;101774.03;4996105;28;99284;-35
2022/07/28 17:41:57;;;;;;;;;;;;;;;22.04;43.68;101767.47;4996299;28;101166;-35
2022/07/28 17:44:22;;;;;;;;;;;;;;;22.01;43.66;101775.19;4990446;28;96633;-35
2022/07/28 17:46:48;;;;;;;;;;;;;;;21.97;43.54;101766.31;4996627;28;96863;-35
2022/07/28 17:49:14;;;;;;;;;;;;;;;21.97;43.68;101780.13;4995308;28;97917;-35
2022/07/28 17:51:40;;;;;;;;;;;;;;;21.85;44.08;101775.78;4994477;28;98009;-35
2022/07/28 17:54:05;;;;;;;;;;;;;;;21.85;44.51;101773.88;4996134;28;96540;-35
2022/07/28 17:56:31;;;;;;;;;;;;;;;21.87;44.23;101765.47;4996265;28;96784;-35
2022/07/28 17:58:56;;;;;;;;;;;;;;;21.80;43.99;101773.44;4993667;28;99232;-35
2022/07/28 18:01:22;;;;;;;;;;;;;;;21.72;44.32;101770.56;4995750;28;99748;-35